sensor_id;sensor_type;location;lat;lon;timestamp;P1;durP1;ratioP1;P2;durP2;ratioP2
62941;SDS011;49042;47.318;19.874;2023-03-01T00:00:13;29.45;;;14.10;;
62941;SDS011;49042;47.318;19.874;2023-03-01T00:03:15;26.70;;;13.55;;
62941;SDS011;49042;47.318;19.874;2023-03-01T00:06:17;26.92;;;13.00;;
62941;SDS011;49042;47.318;19.874;2023-03-01T00:09:19;29.37;;;14.30;;
62941;SDS011;49042;47.318;19.874;2023-03-01T00:12:21;24.48;;;12.85;;
62941;SDS011;49042;47.318;19.874;2023-03-01T00:15:22;25.48;;;13.60;;
62941;SDS011;49042;47.318;19.874;2023-03-01T00:18:24;23.23;;;13.82;;
62941;SDS011;49042;47.318;19.874;2023-03-01T00:21:26;22.67;;;13.10;;
62941;SDS011;49042;47.318;19.874;2023-03-01T00:24:28;28.75;;;14.50;;
62941;SDS011;49042;47.318;19.874;2023-03-01T00:27:29;27.48;;;14.10;;
62941;SDS011;49042;47.318;19.874;2023-03-01T00:30:31;28.77;;;15.60;;
62941;SDS011;49042;47.318;19.874;2023-03-01T00:33:34;22.35;;;13.10;;
62941;SDS011;49042;47.318;19.874;2023-03-01T00:36:36;23.23;;;12.95;;
62941;SDS011;49042;47.318;19.874;2023-03-01T00:39:38;26.70;;;13.73;;
62941;SDS011;49042;47.318;19.874;2023-03-01T00:42:40;26.00;;;13.13;;
62941;SDS011;49042;47.318;19.874;2023-03-01T00:45:42;29.70;;;14.20;;
62941;SDS011;49042;47.318;19.874;2023-03-01T00:48:44;26.85;;;14.10;;
62941;SDS011;49042;47.318;19.874;2023-03-01T00:51:46;23.35;;;13.57;;
62941;SDS011;49042;47.318;19.874;2023-03-01T00:54:48;33.55;;;13.82;;
62941;SDS011;49042;47.318;19.874;2023-03-01T00:57:50;25.95;;;13.23;;
62941;SDS011;49042;47.318;19.874;2023-03-01T01:00:51;24.33;;;13.18;;
62941;SDS011;49042;47.318;19.874;2023-03-01T01:03:57;25.35;;;13.45;;
62941;SDS011;49042;47.318;19.874;2023-03-01T01:07:01;24.05;;;12.88;;
62941;SDS011;49042;47.318;19.874;2023-03-01T01:10:02;23.55;;;13.70;;
62941;SDS011;49042;47.318;19.874;2023-03-01T01:13:04;21.37;;;13.23;;
62941;SDS011;49042;47.318;19.874;2023-03-01T01:16:06;21.48;;;12.57;;
62941;SDS011;49042;47.318;19.874;2023-03-01T01:19:09;23.90;;;13.40;;
62941;SDS011;49042;47.318;19.874;2023-03-01T01:22:12;29.02;;;13.60;;
62941;SDS011;49042;47.318;19.874;2023-03-01T01:25:14;24.58;;;13.32;;
62941;SDS011;49042;47.318;19.874;2023-03-01T01:28:16;33.13;;;13.82;;
62941;SDS011;49042;47.318;19.874;2023-03-01T01:31:18;24.77;;;13.07;;
62941;SDS011;49042;47.318;19.874;2023-03-01T01:34:21;23.48;;;13.07;;
62941;SDS011;49042;47.318;19.874;2023-03-01T01:37:23;25.33;;;13.65;;
62941;SDS011;49042;47.318;19.874;2023-03-01T01:40:32;25.88;;;14.30;;
62941;SDS011;49042;47.318;19.874;2023-03-01T01:43:35;23.87;;;12.85;;
62941;SDS011;49042;47.318;19.874;2023-03-01T01:46:41;24.55;;;13.07;;
62941;SDS011;49042;47.318;19.874;2023-03-01T01:49:47;23.20;;;12.70;;
62941;SDS011;49042;47.318;19.874;2023-03-01T01:52:52;23.17;;;12.95;;
62941;SDS011;49042;47.318;19.874;2023-03-01T01:55:57;21.60;;;13.05;;
62941;SDS011;49042;47.318;19.874;2023-03-01T01:59:01;32.20;;;12.75;;
62941;SDS011;49042;47.318;19.874;2023-03-01T02:02:04;22.55;;;13.30;;
62941;SDS011;49042;47.318;19.874;2023-03-01T02:05:40;24.60;;;12.18;;
62941;SDS011;49042;47.318;19.874;2023-03-01T02:08:57;24.48;;;13.60;;
62941;SDS011;49042;47.318;19.874;2023-03-01T02:12:03;23.35;;;12.95;;
62941;SDS011;49042;47.318;19.874;2023-03-01T02:15:06;23.98;;;13.65;;
62941;SDS011;49042;47.318;19.874;2023-03-01T02:18:08;21.75;;;12.75;;
62941;SDS011;49042;47.318;19.874;2023-03-01T02:24:26;23.50;;;12.57;;
62941;SDS011;49042;47.318;19.874;2023-03-01T02:27:53;21.80;;;12.60;;
62941;SDS011;49042;47.318;19.874;2023-03-01T02:31:18;21.67;;;13.15;;
62941;SDS011;49042;47.318;19.874;2023-03-01T02:34:40;22.15;;;12.15;;
62941;SDS011;49042;47.318;19.874;2023-03-01T02:37:42;23.40;;;12.27;;
62941;SDS011;49042;47.318;19.874;2023-03-01T02:40:45;20.62;;;12.40;;
62941;SDS011;49042;47.318;19.874;2023-03-01T02:43:48;20.12;;;12.45;;
62941;SDS011;49042;47.318;19.874;2023-03-01T02:46:50;22.13;;;11.77;;
62941;SDS011;49042;47.318;19.874;2023-03-01T02:49:54;18.55;;;11.63;;
62941;SDS011;49042;47.318;19.874;2023-03-01T02:53:13;22.27;;;12.05;;
62941;SDS011;49042;47.318;19.874;2023-03-01T02:56:22;19.95;;;12.10;;
62941;SDS011;49042;47.318;19.874;2023-03-01T02:59:24;25.40;;;12.77;;
62941;SDS011;49042;47.318;19.874;2023-03-01T03:02:31;23.70;;;13.20;;
62941;SDS011;49042;47.318;19.874;2023-03-01T03:05:39;25.20;;;12.02;;
62941;SDS011;49042;47.318;19.874;2023-03-01T03:08:41;20.73;;;12.07;;
62941;SDS011;49042;47.318;19.874;2023-03-01T03:11:43;18.98;;;11.73;;
62941;SDS011;49042;47.318;19.874;2023-03-01T03:14:45;24.65;;;11.90;;
62941;SDS011;49042;47.318;19.874;2023-03-01T03:17:47;26.65;;;12.07;;
62941;SDS011;49042;47.318;19.874;2023-03-01T03:20:49;19.45;;;12.02;;
62941;SDS011;49042;47.318;19.874;2023-03-01T03:23:54;20.12;;;10.88;;
62941;SDS011;49042;47.318;19.874;2023-03-01T03:26:59;19.75;;;11.57;;
62941;SDS011;49042;47.318;19.874;2023-03-01T03:30:00;19.75;;;11.48;;
62941;SDS011;49042;47.318;19.874;2023-03-01T03:33:02;19.08;;;10.73;;
62941;SDS011;49042;47.318;19.874;2023-03-01T03:36:04;22.95;;;10.88;;
62941;SDS011;49042;47.318;19.874;2023-03-01T03:39:06;20.73;;;10.90;;
62941;SDS011;49042;47.318;19.874;2023-03-01T03:42:08;17.58;;;10.75;;
62941;SDS011;49042;47.318;19.874;2023-03-01T03:45:11;18.67;;;9.90;;
62941;SDS011;49042;47.318;19.874;2023-03-01T03:48:13;15.77;;;8.85;;
62941;SDS011;49042;47.318;19.874;2023-03-01T03:51:15;17.65;;;9.60;;
62941;SDS011;49042;47.318;19.874;2023-03-01T03:54:18;18.15;;;10.40;;
62941;SDS011;49042;47.318;19.874;2023-03-01T03:57:20;16.45;;;9.48;;
62941;SDS011;49042;47.318;19.874;2023-03-01T04:00:22;18.65;;;10.50;;
62941;SDS011;49042;47.318;19.874;2023-03-01T04:03:25;17.30;;;9.80;;
62941;SDS011;49042;47.318;19.874;2023-03-01T04:06:27;16.83;;;10.43;;
62941;SDS011;49042;47.318;19.874;2023-03-01T04:09:29;21.42;;;10.52;;
62941;SDS011;49042;47.318;19.874;2023-03-01T04:12:31;18.27;;;10.30;;
62941;SDS011;49042;47.318;19.874;2023-03-01T04:15:35;17.70;;;10.30;;
62941;SDS011;49042;47.318;19.874;2023-03-01T04:18:37;19.40;;;10.38;;
62941;SDS011;49042;47.318;19.874;2023-03-01T04:21:38;19.12;;;9.73;;
62941;SDS011;49042;47.318;19.874;2023-03-01T04:24:40;17.55;;;9.95;;
62941;SDS011;49042;47.318;19.874;2023-03-01T04:27:42;19.67;;;10.85;;
62941;SDS011;49042;47.318;19.874;2023-03-01T04:30:43;17.10;;;9.85;;
62941;SDS011;49042;47.318;19.874;2023-03-01T04:36:46;25.45;;;12.55;;
62941;SDS011;49042;47.318;19.874;2023-03-01T04:39:49;20.12;;;11.93;;
62941;SDS011;49042;47.318;19.874;2023-03-01T04:42:50;18.48;;;10.80;;
62941;SDS011;49042;47.318;19.874;2023-03-01T04:45:52;20.50;;;10.95;;
62941;SDS011;49042;47.318;19.874;2023-03-01T04:48:54;22.15;;;11.93;;
62941;SDS011;49042;47.318;19.874;2023-03-01T04:51:56;25.85;;;11.68;;
62941;SDS011;49042;47.318;19.874;2023-03-01T04:55:03;25.42;;;11.00;;
62941;SDS011;49042;47.318;19.874;2023-03-01T04:58:05;20.73;;;10.85;;
62941;SDS011;49042;47.318;19.874;2023-03-01T05:01:16;27.75;;;11.20;;
62941;SDS011;49042;47.318;19.874;2023-03-01T05:04:21;21.90;;;10.20;;
62941;SDS011;49042;47.318;19.874;2023-03-01T05:07:24;25.02;;;12.00;;
62941;SDS011;49042;47.318;19.874;2023-03-01T05:10:28;25.25;;;10.13;;
62941;SDS011;49042;47.318;19.874;2023-03-01T05:13:31;19.80;;;9.95;;
62941;SDS011;49042;47.318;19.874;2023-03-01T05:16:33;21.87;;;9.63;;
62941;SDS011;49042;47.318;19.874;2023-03-01T05:19:37;13.90;;;8.95;;
62941;SDS011;49042;47.318;19.874;2023-03-01T05:22:39;19.65;;;10.40;;
62941;SDS011;49042;47.318;19.874;2023-03-01T05:25:41;31.73;;;11.68;;
62941;SDS011;49042;47.318;19.874;2023-03-01T05:28:43;17.12;;;9.77;;
62941;SDS011;49042;47.318;19.874;2023-03-01T05:31:45;19.00;;;10.02;;
62941;SDS011;49042;47.318;19.874;2023-03-01T05:34:46;20.58;;;10.23;;
62941;SDS011;49042;47.318;19.874;2023-03-01T05:37:48;18.50;;;10.70;;
62941;SDS011;49042;47.318;19.874;2023-03-01T05:40:50;19.80;;;10.77;;
62941;SDS011;49042;47.318;19.874;2023-03-01T05:43:52;19.20;;;11.12;;
62941;SDS011;49042;47.318;19.874;2023-03-01T05:46:54;26.58;;;11.23;;
62941;SDS011;49042;47.318;19.874;2023-03-01T05:49:56;21.27;;;10.95;;
62941;SDS011;49042;47.318;19.874;2023-03-01T05:56:03;20.62;;;10.80;;
62941;SDS011;49042;47.318;19.874;2023-03-01T05:59:05;19.50;;;10.35;;
62941;SDS011;49042;47.318;19.874;2023-03-01T06:02:07;20.27;;;10.10;;
62941;SDS011;49042;47.318;19.874;2023-03-01T06:05:10;22.85;;;11.57;;
62941;SDS011;49042;47.318;19.874;2023-03-01T06:08:13;25.67;;;12.10;;
62941;SDS011;49042;47.318;19.874;2023-03-01T06:11:15;23.30;;;11.38;;
62941;SDS011;49042;47.318;19.874;2023-03-01T06:14:17;23.02;;;11.77;;
62941;SDS011;49042;47.318;19.874;2023-03-01T06:17:18;20.65;;;11.30;;
62941;SDS011;49042;47.318;19.874;2023-03-01T06:20:21;21.15;;;11.15;;
62941;SDS011;49042;47.318;19.874;2023-03-01T06:23:24;21.95;;;11.32;;
62941;SDS011;49042;47.318;19.874;2023-03-01T06:26:26;21.62;;;11.07;;
62941;SDS011;49042;47.318;19.874;2023-03-01T06:29:27;18.90;;;10.60;;
62941;SDS011;49042;47.318;19.874;2023-03-01T06:32:29;21.35;;;11.27;;
62941;SDS011;49042;47.318;19.874;2023-03-01T06:35:32;20.05;;;9.73;;
62941;SDS011;49042;47.318;19.874;2023-03-01T06:38:34;20.25;;;11.10;;
62941;SDS011;49042;47.318;19.874;2023-03-01T06:41:35;20.75;;;9.95;;
62941;SDS011;49042;47.318;19.874;2023-03-01T06:44:37;18.35;;;9.98;;
62941;SDS011;49042;47.318;19.874;2023-03-01T06:47:39;19.12;;;9.50;;
62941;SDS011;49042;47.318;19.874;2023-03-01T06:50:41;19.92;;;9.73;;
62941;SDS011;49042;47.318;19.874;2023-03-01T06:53:43;21.37;;;10.80;;
62941;SDS011;49042;47.318;19.874;2023-03-01T06:56:46;21.27;;;11.43;;
62941;SDS011;49042;47.318;19.874;2023-03-01T06:59:48;18.65;;;9.77;;
62941;SDS011;49042;47.318;19.874;2023-03-01T07:02:50;18.80;;;10.07;;
62941;SDS011;49042;47.318;19.874;2023-03-01T07:05:52;20.42;;;11.12;;
62941;SDS011;49042;47.318;19.874;2023-03-01T07:08:54;15.73;;;8.95;;
62941;SDS011;49042;47.318;19.874;2023-03-01T07:11:56;17.65;;;9.45;;
62941;SDS011;49042;47.318;19.874;2023-03-01T07:14:58;16.15;;;9.23;;
62941;SDS011;49042;47.318;19.874;2023-03-01T07:18:00;16.48;;;9.38;;
62941;SDS011;49042;47.318;19.874;2023-03-01T07:21:05;17.77;;;9.52;;
62941;SDS011;49042;47.318;19.874;2023-03-01T07:24:10;16.20;;;8.68;;
62941;SDS011;49042;47.318;19.874;2023-03-01T07:27:12;19.30;;;9.32;;
62941;SDS011;49042;47.318;19.874;2023-03-01T07:30:14;12.30;;;7.60;;
62941;SDS011;49042;47.318;19.874;2023-03-01T07:33:16;13.65;;;7.20;;
62941;SDS011;49042;47.318;19.874;2023-03-01T07:36:18;18.30;;;8.48;;
62941;SDS011;49042;47.318;19.874;2023-03-01T07:39:19;12.98;;;6.95;;
62941;SDS011;49042;47.318;19.874;2023-03-01T07:42:21;15.18;;;7.85;;
62941;SDS011;49042;47.318;19.874;2023-03-01T07:45:23;13.38;;;7.40;;
62941;SDS011;49042;47.318;19.874;2023-03-01T07:48:26;11.73;;;7.07;;
62941;SDS011;49042;47.318;19.874;2023-03-01T07:51:28;23.05;;;7.97;;
62941;SDS011;49042;47.318;19.874;2023-03-01T07:54:30;12.73;;;7.22;;
62941;SDS011;49042;47.318;19.874;2023-03-01T07:57:32;15.35;;;8.02;;
62941;SDS011;49042;47.318;19.874;2023-03-01T08:00:33;23.15;;;9.82;;
62941;SDS011;49042;47.318;19.874;2023-03-01T08:03:36;13.30;;;7.50;;
62941;SDS011;49042;47.318;19.874;2023-03-01T08:06:38;11.73;;;6.70;;
62941;SDS011;49042;47.318;19.874;2023-03-01T08:09:39;13.15;;;7.47;;
62941;SDS011;49042;47.318;19.874;2023-03-01T08:12:42;15.55;;;8.05;;
62941;SDS011;49042;47.318;19.874;2023-03-01T08:15:43;13.38;;;7.87;;
62941;SDS011;49042;47.318;19.874;2023-03-01T08:18:45;11.95;;;7.35;;
62941;SDS011;49042;47.318;19.874;2023-03-01T08:21:47;14.32;;;8.68;;
62941;SDS011;49042;47.318;19.874;2023-03-01T08:24:48;15.63;;;8.00;;
62941;SDS011;49042;47.318;19.874;2023-03-01T08:27:50;10.55;;;7.00;;
62941;SDS011;49042;47.318;19.874;2023-03-01T08:30:52;14.35;;;7.30;;
62941;SDS011;49042;47.318;19.874;2023-03-01T08:33:55;12.60;;;7.32;;
62941;SDS011;49042;47.318;19.874;2023-03-01T08:36:58;13.07;;;7.68;;
62941;SDS011;49042;47.318;19.874;2023-03-01T08:40:00;11.45;;;7.45;;
62941;SDS011;49042;47.318;19.874;2023-03-01T08:43:02;12.00;;;7.60;;
62941;SDS011;49042;47.318;19.874;2023-03-01T08:46:04;16.92;;;8.20;;
62941;SDS011;49042;47.318;19.874;2023-03-01T08:49:06;12.25;;;7.57;;
62941;SDS011;49042;47.318;19.874;2023-03-01T08:52:09;24.35;;;12.57;;
62941;SDS011;49042;47.318;19.874;2023-03-01T08:55:11;14.73;;;8.25;;
62941;SDS011;49042;47.318;19.874;2023-03-01T08:58:12;14.80;;;7.60;;
62941;SDS011;49042;47.318;19.874;2023-03-01T09:01:17;13.43;;;7.80;;
62941;SDS011;49042;47.318;19.874;2023-03-01T09:04:19;10.88;;;7.22;;
62941;SDS011;49042;47.318;19.874;2023-03-01T09:07:21;10.55;;;6.70;;
62941;SDS011;49042;47.318;19.874;2023-03-01T09:10:23;11.07;;;6.80;;
62941;SDS011;49042;47.318;19.874;2023-03-01T09:13:24;12.65;;;6.45;;
62941;SDS011;49042;47.318;19.874;2023-03-01T09:16:29;8.95;;;5.57;;
62941;SDS011;49042;47.318;19.874;2023-03-01T09:19:35;12.40;;;5.85;;
62941;SDS011;49042;47.318;19.874;2023-03-01T09:22:36;7.40;;;5.75;;
62941;SDS011;49042;47.318;19.874;2023-03-01T09:25:38;9.23;;;5.47;;
62941;SDS011;49042;47.318;19.874;2023-03-01T09:28:40;6.75;;;5.05;;
62941;SDS011;49042;47.318;19.874;2023-03-01T09:31:45;8.45;;;5.78;;
62941;SDS011;49042;47.318;19.874;2023-03-01T09:34:47;7.60;;;5.53;;
62941;SDS011;49042;47.318;19.874;2023-03-01T09:38:07;6.93;;;5.10;;
62941;SDS011;49042;47.318;19.874;2023-03-01T09:47:43;11.55;;;6.15;;
62941;SDS011;49042;47.318;19.874;2023-03-01T09:50:45;10.60;;;6.75;;
62941;SDS011;49042;47.318;19.874;2023-03-01T09:53:49;8.80;;;5.32;;
62941;SDS011;49042;47.318;19.874;2023-03-01T09:57:13;10.30;;;5.57;;
62941;SDS011;49042;47.318;19.874;2023-03-01T10:03:34;28.00;;;7.82;;
62941;SDS011;49042;47.318;19.874;2023-03-01T10:06:46;7.72;;;5.62;;
62941;SDS011;49042;47.318;19.874;2023-03-01T10:09:56;9.32;;;6.07;;
62941;SDS011;49042;47.318;19.874;2023-03-01T10:13:00;11.30;;;5.50;;
62941;SDS011;49042;47.318;19.874;2023-03-01T10:16:15;8.25;;;6.22;;
62941;SDS011;49042;47.318;19.874;2023-03-01T10:19:32;16.75;;;8.38;;
62941;SDS011;49042;47.318;19.874;2023-03-01T10:22:39;14.50;;;7.13;;
62941;SDS011;49042;47.318;19.874;2023-03-01T10:32:09;13.10;;;6.78;;
62941;SDS011;49042;47.318;19.874;2023-03-01T10:35:16;13.18;;;6.32;;
62941;SDS011;49042;47.318;19.874;2023-03-01T10:38:23;20.73;;;6.70;;
62941;SDS011;49042;47.318;19.874;2023-03-01T10:41:26;14.75;;;6.55;;
62941;SDS011;49042;47.318;19.874;2023-03-01T10:47:37;14.40;;;6.22;;
62941;SDS011;49042;47.318;19.874;2023-03-01T10:50:40;13.88;;;7.55;;
62941;SDS011;49042;47.318;19.874;2023-03-01T10:53:49;13.62;;;8.02;;
62941;SDS011;49042;47.318;19.874;2023-03-01T10:56:54;12.93;;;7.35;;
62941;SDS011;49042;47.318;19.874;2023-03-01T11:00:02;13.73;;;8.02;;
62941;SDS011;49042;47.318;19.874;2023-03-01T11:03:24;14.65;;;8.60;;
62941;SDS011;49042;47.318;19.874;2023-03-01T11:06:35;14.13;;;7.47;;
62941;SDS011;49042;47.318;19.874;2023-03-01T11:09:39;9.88;;;5.80;;
62941;SDS011;49042;47.318;19.874;2023-03-01T11:12:41;8.75;;;6.50;;
62941;SDS011;49042;47.318;19.874;2023-03-01T11:15:43;9.10;;;5.93;;
62941;SDS011;49042;47.318;19.874;2023-03-01T11:25:19;8.75;;;6.40;;
62941;SDS011;49042;47.318;19.874;2023-03-01T11:28:26;10.43;;;6.25;;
62941;SDS011;49042;47.318;19.874;2023-03-01T11:31:29;11.80;;;5.78;;
62941;SDS011;49042;47.318;19.874;2023-03-01T11:37:55;10.55;;;6.10;;
62941;SDS011;49042;47.318;19.874;2023-03-01T11:41:17;10.88;;;6.12;;
62941;SDS011;49042;47.318;19.874;2023-03-01T11:44:23;10.02;;;5.82;;
62941;SDS011;49042;47.318;19.874;2023-03-01T11:50:55;7.82;;;5.43;;
62941;SDS011;49042;47.318;19.874;2023-03-01T11:57:25;17.25;;;6.60;;
62941;SDS011;49042;47.318;19.874;2023-03-01T12:10:44;8.13;;;5.68;;
62941;SDS011;49042;47.318;19.874;2023-03-01T12:30:53;11.35;;;5.60;;
62941;SDS011;49042;47.318;19.874;2023-03-01T12:40:49;12.50;;;7.50;;
62941;SDS011;49042;47.318;19.874;2023-03-01T12:47:07;11.70;;;5.53;;
62941;SDS011;49042;47.318;19.874;2023-03-01T12:50:13;10.88;;;5.85;;
62941;SDS011;49042;47.318;19.874;2023-03-01T12:53:40;9.50;;;5.62;;
62941;SDS011;49042;47.318;19.874;2023-03-01T12:56:45;10.45;;;5.20;;
62941;SDS011;49042;47.318;19.874;2023-03-01T13:00:10;8.43;;;5.07;;
62941;SDS011;49042;47.318;19.874;2023-03-01T13:03:25;18.20;;;7.72;;
62941;SDS011;49042;47.318;19.874;2023-03-01T13:10:19;8.18;;;5.07;;
62941;SDS011;49042;47.318;19.874;2023-03-01T13:13:29;12.45;;;6.95;;
62941;SDS011;49042;47.318;19.874;2023-03-01T13:19:33;11.63;;;5.45;;
62941;SDS011;49042;47.318;19.874;2023-03-01T13:22:37;8.43;;;4.93;;
62941;SDS011;49042;47.318;19.874;2023-03-01T13:29:25;7.80;;;5.20;;
62941;SDS011;49042;47.318;19.874;2023-03-01T13:32:37;13.52;;;5.30;;
62941;SDS011;49042;47.318;19.874;2023-03-01T13:35:45;12.45;;;4.75;;
62941;SDS011;49042;47.318;19.874;2023-03-01T13:38:48;7.97;;;5.37;;
62941;SDS011;49042;47.318;19.874;2023-03-01T13:41:59;7.87;;;4.80;;
62941;SDS011;49042;47.318;19.874;2023-03-01T13:45:01;10.43;;;5.62;;
62941;SDS011;49042;47.318;19.874;2023-03-01T13:48:08;8.48;;;5.25;;
62941;SDS011;49042;47.318;19.874;2023-03-01T13:51:19;12.93;;;5.43;;
62941;SDS011;49042;47.318;19.874;2023-03-01T13:54:29;11.02;;;6.05;;
62941;SDS011;49042;47.318;19.874;2023-03-01T13:57:33;8.47;;;5.43;;
62941;SDS011;49042;47.318;19.874;2023-03-01T14:00:38;13.62;;;6.65;;
62941;SDS011;49042;47.318;19.874;2023-03-01T14:03:41;11.85;;;6.15;;
62941;SDS011;49042;47.318;19.874;2023-03-01T14:06:43;11.63;;;7.20;;
62941;SDS011;49042;47.318;19.874;2023-03-01T14:09:46;6.93;;;4.12;;
62941;SDS011;49042;47.318;19.874;2023-03-01T14:12:52;4.22;;;3.70;;
62941;SDS011;49042;47.318;19.874;2023-03-01T14:20:07;12.00;;;4.00;;
62941;SDS011;49042;47.318;19.874;2023-03-01T14:23:30;4.50;;;3.47;;
62941;SDS011;49042;47.318;19.874;2023-03-01T14:26:32;9.77;;;4.85;;
62941;SDS011;49042;47.318;19.874;2023-03-01T14:29:38;4.60;;;3.45;;
62941;SDS011;49042;47.318;19.874;2023-03-01T14:32:41;18.52;;;4.30;;
62941;SDS011;49042;47.318;19.874;2023-03-01T14:35:51;9.27;;;4.30;;
62941;SDS011;49042;47.318;19.874;2023-03-01T14:38:57;11.18;;;4.85;;
62941;SDS011;49042;47.318;19.874;2023-03-01T14:42:06;7.25;;;4.10;;
62941;SDS011;49042;47.318;19.874;2023-03-01T14:45:16;8.30;;;5.12;;
62941;SDS011;49042;47.318;19.874;2023-03-01T14:48:19;6.62;;;4.10;;
62941;SDS011;49042;47.318;19.874;2023-03-01T14:51:21;9.25;;;4.50;;
62941;SDS011;49042;47.318;19.874;2023-03-01T14:54:25;6.50;;;4.87;;
62941;SDS011;49042;47.318;19.874;2023-03-01T14:57:29;6.28;;;4.12;;
62941;SDS011;49042;47.318;19.874;2023-03-01T15:00:31;9.30;;;4.60;;
62941;SDS011;49042;47.318;19.874;2023-03-01T15:03:35;8.23;;;4.30;;
62941;SDS011;49042;47.318;19.874;2023-03-01T15:06:39;7.50;;;4.55;;
62941;SDS011;49042;47.318;19.874;2023-03-01T15:09:42;9.32;;;5.07;;
62941;SDS011;49042;47.318;19.874;2023-03-01T15:12:44;7.85;;;4.62;;
62941;SDS011;49042;47.318;19.874;2023-03-01T15:15:45;14.73;;;6.05;;
62941;SDS011;49042;47.318;19.874;2023-03-01T15:18:51;19.92;;;6.75;;
62941;SDS011;49042;47.318;19.874;2023-03-01T15:21:55;7.00;;;4.68;;
62941;SDS011;49042;47.318;19.874;2023-03-01T15:24:58;10.27;;;4.72;;
62941;SDS011;49042;47.318;19.874;2023-03-01T15:28:00;8.15;;;5.07;;
62941;SDS011;49042;47.318;19.874;2023-03-01T15:31:05;11.27;;;5.15;;
62941;SDS011;49042;47.318;19.874;2023-03-01T15:34:21;9.20;;;5.37;;
62941;SDS011;49042;47.318;19.874;2023-03-01T15:37:47;21.02;;;8.30;;
62941;SDS011;49042;47.318;19.874;2023-03-01T15:40:50;19.48;;;6.30;;
62941;SDS011;49042;47.318;19.874;2023-03-01T15:43:52;14.70;;;5.60;;
62941;SDS011;49042;47.318;19.874;2023-03-01T15:46:57;11.75;;;5.10;;
62941;SDS011;49042;47.318;19.874;2023-03-01T15:49:59;13.35;;;6.18;;
62941;SDS011;49042;47.318;19.874;2023-03-01T15:53:06;17.58;;;8.23;;
62941;SDS011;49042;47.318;19.874;2023-03-01T15:56:12;12.98;;;7.65;;
62941;SDS011;49042;47.318;19.874;2023-03-01T15:59:15;12.57;;;7.95;;
62941;SDS011;49042;47.318;19.874;2023-03-01T16:02:18;16.08;;;9.50;;
62941;SDS011;49042;47.318;19.874;2023-03-01T16:08:26;17.73;;;9.07;;
62941;SDS011;49042;47.318;19.874;2023-03-01T16:11:28;15.38;;;7.80;;
62941;SDS011;49042;47.318;19.874;2023-03-01T16:14:30;23.23;;;9.02;;
62941;SDS011;49042;47.318;19.874;2023-03-01T16:17:32;16.10;;;9.27;;
62941;SDS011;49042;47.318;19.874;2023-03-01T16:20:34;13.70;;;8.05;;
62941;SDS011;49042;47.318;19.874;2023-03-01T16:23:36;14.30;;;9.15;;
62941;SDS011;49042;47.318;19.874;2023-03-01T16:26:38;14.98;;;8.63;;
62941;SDS011;49042;47.318;19.874;2023-03-01T16:29:40;16.48;;;9.18;;
62941;SDS011;49042;47.318;19.874;2023-03-01T16:32:43;30.05;;;16.20;;
62941;SDS011;49042;47.318;19.874;2023-03-01T16:35:46;28.12;;;16.65;;
62941;SDS011;49042;47.318;19.874;2023-03-01T16:38:48;16.87;;;10.95;;
62941;SDS011;49042;47.318;19.874;2023-03-01T16:41:51;20.67;;;14.27;;
62941;SDS011;49042;47.318;19.874;2023-03-01T16:44:56;31.12;;;15.50;;
62941;SDS011;49042;47.318;19.874;2023-03-01T16:47:57;23.15;;;14.45;;
62941;SDS011;49042;47.318;19.874;2023-03-01T16:51:00;23.42;;;11.93;;
62941;SDS011;49042;47.318;19.874;2023-03-01T16:54:02;24.65;;;13.73;;
62941;SDS011;49042;47.318;19.874;2023-03-01T16:57:06;26.42;;;17.05;;
62941;SDS011;49042;47.318;19.874;2023-03-01T17:00:08;33.63;;;15.85;;
62941;SDS011;49042;47.318;19.874;2023-03-01T17:03:12;27.42;;;16.35;;
62941;SDS011;49042;47.318;19.874;2023-03-01T17:06:17;26.52;;;16.20;;
62941;SDS011;49042;47.318;19.874;2023-03-01T17:09:21;30.33;;;18.15;;
62941;SDS011;49042;47.318;19.874;2023-03-01T17:12:24;26.87;;;17.52;;
62941;SDS011;49042;47.318;19.874;2023-03-01T17:15:26;23.52;;;13.60;;
62941;SDS011;49042;47.318;19.874;2023-03-01T17:18:28;19.95;;;11.15;;
62941;SDS011;49042;47.318;19.874;2023-03-01T17:21:30;14.98;;;9.40;;
62941;SDS011;49042;47.318;19.874;2023-03-01T17:24:37;14.45;;;8.85;;
62941;SDS011;49042;47.318;19.874;2023-03-01T17:27:40;17.15;;;8.00;;
62941;SDS011;49042;47.318;19.874;2023-03-01T17:30:43;12.05;;;7.62;;
62941;SDS011;49042;47.318;19.874;2023-03-01T17:33:48;16.25;;;8.70;;
62941;SDS011;49042;47.318;19.874;2023-03-01T17:36:51;13.52;;;8.65;;
62941;SDS011;49042;47.318;19.874;2023-03-01T17:39:53;16.35;;;10.35;;
62941;SDS011;49042;47.318;19.874;2023-03-01T17:42:55;16.70;;;9.35;;
62941;SDS011;49042;47.318;19.874;2023-03-01T17:45:58;17.80;;;9.55;;
62941;SDS011;49042;47.318;19.874;2023-03-01T17:49:00;23.75;;;11.93;;
62941;SDS011;49042;47.318;19.874;2023-03-01T17:52:02;24.90;;;11.77;;
62941;SDS011;49042;47.318;19.874;2023-03-01T17:55:05;25.88;;;12.57;;
62941;SDS011;49042;47.318;19.874;2023-03-01T17:58:12;35.25;;;11.90;;
62941;SDS011;49042;47.318;19.874;2023-03-01T18:01:17;19.98;;;10.98;;
62941;SDS011;49042;47.318;19.874;2023-03-01T18:04:21;20.27;;;10.88;;
62941;SDS011;49042;47.318;19.874;2023-03-01T18:07:27;23.70;;;11.85;;
62941;SDS011;49042;47.318;19.874;2023-03-01T18:10:30;29.52;;;11.73;;
62941;SDS011;49042;47.318;19.874;2023-03-01T18:13:32;24.15;;;11.93;;
62941;SDS011;49042;47.318;19.874;2023-03-01T18:16:35;25.55;;;11.93;;
62941;SDS011;49042;47.318;19.874;2023-03-01T18:19:40;25.37;;;12.18;;
62941;SDS011;49042;47.318;19.874;2023-03-01T18:22:44;25.80;;;12.85;;
62941;SDS011;49042;47.318;19.874;2023-03-01T18:25:48;31.52;;;14.60;;
62941;SDS011;49042;47.318;19.874;2023-03-01T18:28:50;81.00;;;33.70;;
62941;SDS011;49042;47.318;19.874;2023-03-01T18:31:52;85.18;;;33.67;;
62941;SDS011;49042;47.318;19.874;2023-03-01T18:34:55;91.30;;;36.80;;
62941;SDS011;49042;47.318;19.874;2023-03-01T18:37:58;71.78;;;31.80;;
62941;SDS011;49042;47.318;19.874;2023-03-01T18:41:01;77.53;;;31.83;;
62941;SDS011;49042;47.318;19.874;2023-03-01T18:44:04;92.18;;;35.47;;
62941;SDS011;49042;47.318;19.874;2023-03-01T18:47:08;121.93;;;47.62;;
62941;SDS011;49042;47.318;19.874;2023-03-01T18:50:12;146.60;;;55.70;;
62941;SDS011;49042;47.318;19.874;2023-03-01T18:53:15;228.85;;;78.75;;
62941;SDS011;49042;47.318;19.874;2023-03-01T18:56:17;206.80;;;74.07;;
62941;SDS011;49042;47.318;19.874;2023-03-01T18:59:19;177.80;;;62.97;;
62941;SDS011;49042;47.318;19.874;2023-03-01T19:02:21;145.80;;;51.60;;
62941;SDS011;49042;47.318;19.874;2023-03-01T19:05:25;106.70;;;44.90;;
62941;SDS011;49042;47.318;19.874;2023-03-01T19:08:28;88.65;;;40.35;;
62941;SDS011;49042;47.318;19.874;2023-03-01T19:11:31;83.82;;;38.28;;
62941;SDS011;49042;47.318;19.874;2023-03-01T19:14:36;75.07;;;33.00;;
62941;SDS011;49042;47.318;19.874;2023-03-01T19:17:38;75.53;;;34.03;;
62941;SDS011;49042;47.318;19.874;2023-03-01T19:20:42;43.80;;;20.52;;
62941;SDS011;49042;47.318;19.874;2023-03-01T19:23:46;39.63;;;17.80;;
62941;SDS011;49042;47.318;19.874;2023-03-01T19:26:52;34.22;;;17.05;;
62941;SDS011;49042;47.318;19.874;2023-03-01T19:29:58;29.50;;;14.07;;